Flight Track Log - Related Links

Times and Time Zones

All times are in EDT time to prevent confusion due to time zone crossing. See the DAL1981 flight status page for this flight to view local times or setup timezone preferences in your user account.

Time Position Orientation Groundspeed Altitude Reporting Facility
EDT Latitude Longitude Course Direction KTS MPH feet Rate Location/Type
Tue 04:04:12 PM 38.6667 -121.5833 78° East 149 171 1,400  Level Northern Cal TRACON
Tue 04:05:12 PM 38.6333 -121.5333 130° Southeast 203 234 2,200 1,450 Climbing Northern Cal TRACON
Tue 04:06:00 PM 38.4972 -121.2527 80° East  Level FlightAware Approximate
Tue 04:06:12 PM 38.6167 -121.4333 102° East 266 306 4,300  Level Northern Cal TRACON
Tue 04:07:00 PM 38.5345 -121.0944 76° East  Level FlightAware Approximate
Tue 04:07:12 PM 38.6167 -121.3500 90° East 290 334 7,000  Level Northern Cal TRACON
Tue 04:08:00 PM 38.5641 -120.9328 78° East  Level FlightAware Approximate
Tue 04:08:12 PM 38.6333 -121.2333 80° East 302 348 9,500  Level Northern Cal TRACON
Tue 04:09:00 PM 38.5911 -120.7704 78° East  Level FlightAware Approximate
Tue 04:09:12 PM 38.6333 -121.1167 90° East 341 392 11,000  Level Northern Cal TRACON
Tue 04:10:35 PM 38.6531 -120.9561 81° East 386 444 13,100 1,708 Climbing Oakland Center
Tue 04:11:36 PM 38.6806 -120.8208 75° East 402 463 15,100 1,854 Climbing Oakland Center
Tue 04:12:38 PM 38.7775 -120.6825 48° Northeast 436 502 16,900 1,756 Climbing Oakland Center
Tue 04:13:39 PM 38.8569 -120.5600 50° Northeast 446 513 18,700 1,623 Climbing Oakland Center
Tue 04:14:40 PM 38.9400 -120.4339 50° Northeast 463 533 20,200 1,377 Climbing Oakland Center
Tue 04:15:41 PM 39.0250 -120.3047 50° Northeast 472 543 21,500 1,328 Climbing Oakland Center
Tue 04:16:42 PM 39.1103 -120.1719 50° Northeast 481 554 22,900 1,279 Climbing Oakland Center
Tue 04:17:43 PM 39.1936 -120.0442 50° Northeast 486 559 24,100 1,131 Climbing Oakland Center
Tue 04:18:44 PM 39.2853 -119.9061 49° Northeast 506 582 25,200 1,073 Climbing Oakland Center
Tue 04:19:46 PM 39.3750 -119.7686 50° Northeast 501 577 26,300 878 Climbing Oakland Center
Tue 04:20:47 PM 39.4667 -119.6258 50° Northeast 511 588 27,000 885 Climbing Oakland Center
Tue 04:21:48 PM 39.5772 -119.4506 51° Northeast 519 597 28,100 984 Climbing Oakland Center
Tue 04:22:49 PM 39.6711 -119.3022 51° Northeast 525 604 29,000 885 Climbing Oakland Center
Tue 04:23:50 PM 39.7656 -119.1531 50° Northeast 530 610 29,900 885 Climbing Oakland Center
Tue 04:24:51 PM 39.8583 -119.0050 51° Northeast 525 604 30,800 1,024 Climbing Oakland Center
Tue 04:25:53 PM 39.9503 -118.8581 51° Northeast 521 600 32,000 1,171 Climbing Oakland Center
Tue 04:26:54 PM 40.0400 -118.7144 51° Northeast 511 588 33,200 1,082 Climbing Oakland Center
Tue 04:27:55 PM 40.1197 -118.5647 55° Northeast 502 578 34,200 787 Climbing Oakland Center
Tue 04:28:56 PM 40.1753 -118.4008 66° East 492 566 34,800 393 Climbing Oakland Center
Tue 04:29:57 PM 40.2197 -118.2308 71° East 491 565 35,000 98 Climbing Oakland Center
Tue 04:30:59 PM 40.2675 -118.0567 70° East 503 579 35,000  Level Oakland Center
Tue 04:32:00 PM 40.3167 -117.8750 70° East 511 588 35,000  Level Oakland Center
Tue 04:33:01 PM 40.3619 -117.7075 70° East 509 586 35,000  Level Oakland Center
Tue 04:33:31 PM 40.3839 -117.6236 71° East 508 585 35,000  Level Salt Lake Center
Tue 04:34:33 PM 40.4367 -117.4281 70° East 509 586 35,000  Level Salt Lake Center
Tue 04:35:35 PM 40.4808 -117.2614 71° East 504 580 35,000  Level Salt Lake Center
Tue 04:36:37 PM 40.5328 -117.0619 71° East 509 586 35,000  Level Salt Lake Center
Tue 04:37:38 PM 40.5808 -116.8925 69° East 508 585 35,000  Level Salt Lake Center
Tue 04:38:40 PM 40.6444 -116.7328 62° Northeast 507 583 35,000  Level Salt Lake Center
Tue 04:39:42 PM 40.7150 -116.5494 63° Northeast 503 579 35,000  Level Salt Lake Center
Tue 04:40:44 PM 40.7747 -116.3919 63° Northeast 501 577 35,000  Level Salt Lake Center
Tue 04:41:45 PM 40.8456 -116.2103 63° Northeast 499 574 35,000  Level Salt Lake Center
Tue 04:42:47 PM 40.9069 -116.0533 63° Northeast 500 575 35,000  Level Salt Lake Center
Tue 04:43:49 PM 40.9667 -115.8961 63° Northeast 499 574 35,000  Level Salt Lake Center
Tue 04:44:51 PM 41.0356 -115.7108 64° Northeast 498 573 35,000  Level Salt Lake Center
Tue 04:45:52 PM 41.0939 -115.5553 64° Northeast 497 572 35,000  Level Salt Lake Center
Tue 04:46:54 PM 41.1633 -115.3731 63° Northeast 496 571 35,000  Level Salt Lake Center
Tue 04:47:56 PM 41.2208 -115.2156 64° Northeast 496 571 35,000  Level Salt Lake Center
Tue 04:48:58 PM 41.2889 -115.0319 64° Northeast 495 570 35,000  Level Salt Lake Center
Tue 04:49:59 PM 41.3461 -114.8756 64° Northeast 494 568 35,000  Level Salt Lake Center
Tue 04:51:01 PM 41.4122 -114.6961 64° Northeast 494 568 35,000  Level Salt Lake Center
Tue 04:52:03 PM 41.4711 -114.5331 64° Northeast 491 565 35,000  Level Salt Lake Center
Tue 04:53:05 PM 41.5306 -114.3692 64° Northeast 491 565 35,000  Level Salt Lake Center
Tue 04:54:07 PM 41.5906 -114.2047 64° Northeast 492 566 35,000  Level Salt Lake Center
Tue 04:55:08 PM 41.6478 -114.0417 65° Northeast 487 560 35,000  Level Salt Lake Center
Tue 04:56:10 PM 41.7058 -113.8783 64° Northeast 487 560 35,000  Level Salt Lake Center
Tue 04:57:12 PM 41.7636 -113.7136 65° Northeast 490 564 35,000  Level Salt Lake Center
Tue 04:58:14 PM 41.8336 -113.5169 64° Northeast 488 562 35,000  Level Salt Lake Center
Tue 04:59:16 PM 41.8911 -113.3536 65° Northeast 486 559 35,000  Level Salt Lake Center
Tue 05:00:17 PM 41.9464 -113.1906 65° Northeast 482 555 35,000  Level Salt Lake Center
Tue 05:01:19 PM 42.0047 -113.0256 65° Northeast 487 560 35,000  Level Salt Lake Center
Tue 05:02:21 PM 42.0606 -112.8603 65° Northeast 486 559 35,000  Level Salt Lake Center
Tue 05:03:23 PM 42.1164 -112.6950 65° Northeast 485 558 35,000  Level Salt Lake Center
Tue 05:04:25 PM 42.1728 -112.5289 65° Northeast 486 559 35,000  Level Salt Lake Center
Tue 05:05:27 PM 42.2392 -112.3308 66° East 484 557 35,000  Level Salt Lake Center
Tue 05:06:29 PM 42.2933 -112.1636 66° East 485 558 35,000  Level Salt Lake Center
Tue 05:07:31 PM 42.3469 -111.9983 66° East 482 555 35,000  Level Salt Lake Center
Tue 05:08:33 PM 42.4000 -111.8325 67° East 481 554 35,000  Level Salt Lake Center
Tue 05:09:35 PM 42.4531 -111.6669 66° East 480 552 35,000  Level Salt Lake Center
Tue 05:10:37 PM 42.5061 -111.5017 66° East 478 550 35,000  Level Salt Lake Center
Tue 05:11:39 PM 42.5589 -111.3358 67° East 480 552 35,000  Level Salt Lake Center
Tue 05:12:40 PM 42.6217 -111.1358 67° East 481 554 35,000  Level Salt Lake Center
Tue 05:13:42 PM 42.6739 -110.9689 67° East 480 552 35,000  Level Salt Lake Center
Tue 05:14:44 PM 42.7306 -110.7900 67° East 482 555 35,000  Level Salt Lake Center
Tue 05:15:46 PM 42.7792 -110.6292 68° East 483 556 35,000  Level Salt Lake Center
Tue 05:16:48 PM 42.8358 -110.4456 67° East 473 544 35,000  Level Salt Lake Center
Tue 05:17:50 PM 42.8839 -110.2864 68° East 475 547 35,000  Level Salt Lake Center
Tue 05:18:52 PM 42.9331 -110.1261 67° East 479 551 35,000  Level Salt Lake Center
Tue 05:19:54 PM 42.9886 -109.9378 68° East 479 551 35,000  Level Salt Lake Center
Tue 05:20:56 PM 43.0419 -109.7611 68° East 479 551 35,000  Level Salt Lake Center
Tue 05:21:58 PM 43.0892 -109.6008 68° East 477 549 35,000 242 Level Salt Lake Center
Tue 05:23:00 PM 43.1450 -109.4128 68° East 477 549 35,500 435 Climbing Salt Lake Center
Tue 05:24:02 PM 43.1917 -109.2522 68° East 474 545 35,900 435 Climbing Salt Lake Center
Tue 05:25:04 PM 43.2458 -109.0650 68° East 474 545 36,400 484 Climbing Salt Lake Center
Tue 05:26:06 PM 43.2933 -108.9031 68° East 476 548 36,900 293 Climbing Salt Lake Center
Tue 05:27:07 PM 43.3461 -108.7144 69° East 475 547 37,000 49 Climbing Salt Lake Center
Tue 05:28:09 PM 43.3922 -108.5542 68° East 472 543 37,000  Level Salt Lake Center
Tue 05:29:11 PM 43.4381 -108.3922 69° East 474 545 37,000  Level Salt Lake Center
Tue 05:30:13 PM 43.4569 -108.1919 83° East 473 544 37,000  Level Salt Lake Center
Tue 05:31:15 PM 43.4492 -108.0206 94° East 470 541 37,000  Level Salt Lake Center
Tue 05:32:17 PM 43.4250 -107.8272 100° East 460 529 37,000 -48 Level Salt Lake Center
Tue 05:33:19 PM 43.3811 -107.6703 111° Southeast 457 526 36,900  Descending Salt Lake Center
Tue 05:34:21 PM 43.3603 -107.4783 98° East 459 528 37,000 48 Climbing Salt Lake Center
Tue 05:35:23 PM 43.3544 -107.2961 92° East 460 529 37,000 48 Level Salt Lake Center
Tue 05:36:25 PM 43.3467 -107.1264 94° East 464 534 37,100  Climbing Salt Lake Center
Tue 05:37:27 PM 43.3381 -106.9281 93° East 465 535 37,000 -53 Descending Salt Lake Center
Tue 05:38:19 PM 43.3311 -106.7842 94° East 468 539 37,000  Level Denver Center
Tue 05:39:21 PM 43.3250 -106.6125 93° East 470 541 37,000 49 Level Denver Center
Tue 05:40:22 PM 43.3167 -106.4122 93° East 470 541 37,100  Climbing Denver Center
Tue 05:41:24 PM 43.3089 -106.2428 94° East 466 536 37,000 -48 Descending Denver Center
Tue 05:42:26 PM 43.3103 -106.0433 89° East 467 537 37,000  Level Denver Center
Tue 05:43:28 PM 43.3292 -105.8742 81° East 466 536 37,000  Level Denver Center
Tue 05:44:29 PM 43.3500 -105.6753 82° East 469 540 37,000  Level Denver Center
Tue 05:45:31 PM 43.3706 -105.5050 81° East 471 542 37,000  Level Denver Center
Tue 05:46:33 PM 43.3919 -105.3344 80° East 470 541 37,000  Level Denver Center
Tue 05:47:35 PM 43.4189 -105.1336 79° East 474 545 37,000  Level Denver Center
Tue 05:48:37 PM 43.4406 -104.9603 80° East 476 548 37,000  Level Denver Center
Tue 05:49:38 PM 43.4669 -104.7578 80° East 478 550 37,000  Level Denver Center
Tue 05:50:40 PM 43.4733 -104.5775 87° East 487 560 37,000  Level Denver Center
Tue 05:51:42 PM 43.4661 -104.3972 93° East 492 566 37,000  Level Denver Center
Tue 05:52:44 PM 43.4586 -104.1858 93° East 493 567 37,000 48 Level Denver Center
Tue 05:53:46 PM 43.4564 -104.0036 91° East 496 571 37,100  Climbing Denver Center
Tue 05:54:48 PM 43.4661 -103.7922 86° East 497 572 37,000 -49 Descending Denver Center
Tue 05:55:49 PM 43.4939 -103.6156 78° East 498 573 37,000  Level Denver Center
Tue 05:56:51 PM 43.5244 -103.4100 78° East 492 566 37,000  Level Denver Center
Tue 05:57:53 PM 43.5506 -103.2350 78° East 489 563 37,000  Level Denver Center
Tue 05:58:55 PM 43.5803 -103.0292 79° East 490 564 37,000  Level Denver Center
Tue 05:59:57 PM 43.6069 -102.8531 78° East 489 563 37,000  Level Denver Center
Tue 06:00:59 PM 43.6372 -102.6500 78° East 486 559 37,000  Level Denver Center
Tue 06:02:01 PM 43.6617 -102.4725 79° East 490 564 37,000 48 Level Denver Center
Tue 06:03:03 PM 43.6878 -102.2969 78° East 490 564 37,100  Climbing Denver Center
Tue 06:04:05 PM 43.7150 -102.0972 79° East 488 562 37,000 -48 Descending Denver Center
Tue 06:05:07 PM 43.7392 -101.9153 80° East 484 557 37,000  Level Denver Center
Tue 06:06:09 PM 43.7644 -101.7356 79° East 478 550 37,000  Level Denver Center
Tue 06:06:57 PM 43.7831 -101.5919 80° East 480 552 37,000  Level Minneapolis Center
Tue 06:07:59 PM 43.8078 -101.4136 79° East 476 548 37,000  Level Minneapolis Center
Tue 06:09:01 PM 43.8364 -101.1983 79° East 477 549 37,000  Level Minneapolis Center
Tue 06:10:03 PM 43.8603 -101.0183 80° East 476 548 37,000  Level Minneapolis Center
Tue 06:11:05 PM 43.8839 -100.8381 80° East 477 549 37,000  Level Minneapolis Center
Tue 06:12:07 PM 43.9061 -100.6569 80° East 478 550 37,000  Level Minneapolis Center
Tue 06:13:08 PM 43.9281 -100.4772 80° East 478 550 37,000  Level Minneapolis Center
Tue 06:14:11 PM 43.9500 -100.2989 80° East 475 547 37,000  Level Minneapolis Center
Tue 06:15:12 PM 43.9719 -100.1219 80° East 473 544 37,000  Level Minneapolis Center
Tue 06:16:14 PM 43.9983 -99.9100 80° East 470 541 37,000  Level Minneapolis Center
Tue 06:17:16 PM 44.0189 -99.7336 81° East 467 537 37,000  Level Minneapolis Center
Tue 06:18:30 PM 44.0403 -99.5553 80° East 468 539 37,000  Level Minneapolis Center
Tue 06:19:32 PM 44.0656 -99.3419 81° East 469 540 37,000  Level Minneapolis Center
Tue 06:20:34 PM 44.0856 -99.1633 81° East 470 541 37,000  Level Minneapolis Center
Tue 06:21:36 PM 44.1044 -98.9836 82° East 471 542 37,000  Level Minneapolis Center
Tue 06:22:38 PM 44.1292 -98.7672 81° East 474 545 37,000  Level Minneapolis Center
Tue 06:23:40 PM 44.1494 -98.5844 81° East 474 545 37,000  Level Minneapolis Center
Tue 06:24:42 PM 44.1678 -98.4042 82° East 471 542 37,000  Level Minneapolis Center
Tue 06:25:44 PM 44.1883 -98.2242 81° East 472 543 37,000  Level Minneapolis Center
Tue 06:26:58 PM 44.2056 -98.0447 82° East 469 540 37,000  Level Minneapolis Center
Tue 06:28:01 PM 44.2311 -97.7933 82° East 469 540 37,000 -144 Level Minneapolis Center
Tue 06:29:03 PM 44.2492 -97.6133 82° East 471 542 36,700 -629 Descending Minneapolis Center
Tue 06:30:05 PM 44.2669 -97.4319 82° East 472 543 35,700 -919 Descending Minneapolis Center
Tue 06:31:07 PM 44.2836 -97.2503 83° East 472 543 34,800 -919 Descending Minneapolis Center
Tue 06:32:09 PM 44.3011 -97.0686 82° East 473 544 33,800 -968 Descending Minneapolis Center
Tue 06:33:11 PM 44.3186 -96.8869 82° East 473 544 32,800 -1,065 Descending Minneapolis Center
Tue 06:34:13 PM 44.3386 -96.6686 83° East 472 543 31,600 -794 Descending Minneapolis Center
Tue 06:35:27 PM 44.3550 -96.4825 83° East 477 549 31,000 -750 Descending Minneapolis Center
Tue 06:36:29 PM 44.3756 -96.2594 83° East 475 547 29,900 -1,016 Descending Minneapolis Center
Tue 06:37:31 PM 44.3917 -96.0731 83° East 475 547 28,900 -960 Descending Minneapolis Center
Tue 06:38:34 PM 44.4064 -95.8933 83° East 464 534 27,900 -960 Descending Minneapolis Center
Tue 06:39:36 PM 44.4206 -95.7183 83° East 453 521 26,900 -919 Descending Minneapolis Center
Tue 06:40:38 PM 44.4344 -95.5461 83° East 446 513 26,000 -919 Descending Minneapolis Center
Tue 06:41:40 PM 44.4486 -95.3758 83° East 442 509 25,000 -1,016 Descending Minneapolis Center
Tue 06:42:42 PM 44.4631 -95.1736 84° East 435 501 23,900 -927 Descending Minneapolis Center
Tue 06:43:43 PM 44.4850 -95.0461 76° East 423 487 23,100 -1,306 Descending Minneapolis Center
Tue 06:44:46 PM 44.5314 -94.8611 71° East 420 483 21,200 -1,968 Descending Minneapolis Center
Tue 06:45:48 PM 44.5658 -94.7133 72° East 407 468 19,000 -2,274 Descending Minneapolis Center
Tue 06:46:50 PM 44.6033 -94.5486 72° East 392 451 16,500 -2,274 Descending Minneapolis Center
Tue 06:47:52 PM 44.6358 -94.4083 72° East 378 435 14,300 -2,081 Descending Minneapolis Center
Tue 06:48:54 PM 44.6667 -94.2725 72° East 367 422 12,200 -1,597 Descending Minneapolis Center
Tue 06:49:56 PM 44.6967 -94.1439 72° East 346 398 11,000 -926 Descending Minneapolis Center
Tue 06:51:10 PM 44.7242 -94.0314 71° East 304 350 10,100 -876 Descending Minneapolis Center
Tue 06:52:13 PM 44.7981 -93.9389 42° Northeast 291 335 9,000 -1,056 Descending Minneapolis Center
Tue 06:53:15 PM 44.8578 -93.8592 43° Northeast 247 284 7,900 -968 Descending Minneapolis Center
Tue 06:54:17 PM 44.9058 -93.7961 43° Northeast 236 272 7,000 -435 Descending Minneapolis Center
Tue 06:55:19 PM 44.9542 -93.7336 42° Northeast 236 272 7,000 -97 Level Minneapolis Center
Tue 06:56:21 PM 44.9811 -93.6864 51° Northeast 206 237 6,800 -871 Descending Minneapolis Center
Tue 06:57:23 PM 44.9700 -93.5950 100° East 197 227 5,200 -1,306 Descending Minneapolis Center
Tue 06:58:25 PM 44.9614 -93.5156 99° East 203 234 4,100 -1,016 Descending Minneapolis Center
Tue 06:59:27 PM 44.9522 -93.4322 99° East 179 206 3,100 -532 Descending Minneapolis Center
Tue 07:00:29 PM 44.9456 -93.3708 99° East 162 186 3,000 -432 Descending Minneapolis Center
Tue 07:01:32 PM 44.9253 -93.3208 120° Southeast 145 167 2,200 -720 Descending Minneapolis Center
Tue 07:02:34 PM 44.9058 -93.2758 121° Southeast 135 155 1,500 -677 Descending Minneapolis Center
Tue 07:04:00 PM 44.8820 -93.2218 130° Southeast  Level Estimated
Tue 07:11:00 PM 44.8820 -93.2218 130° Southeast  Level Estimated

Login

Don't have an account? Register now (free) for customized features, flight alerts, and more!